ADDS METAR Data INFO
IDs: Format: Raw Decoded Include TAF

Data at: 1305 UTC 19 Jul 2018

KRQB 191255Z AUTO 00000KT 10SM CLR 16/12 A3007 RMK AO2 T01640120
KRQB 191235Z AUTO 00000KT 10SM CLR 15/12 A3007 RMK AO2 T01480115
KRQB 191215Z AUTO 00000KT 10SM CLR 14/11 A3007 RMK AO2 T01360110
KRQB 191155Z AUTO 00000KT 10SM CLR 13/11 A3008 RMK AO2 T01270106 10128 20097
KRQB 191135Z AUTO 00000KT 10SM CLR 12/10 A3008 RMK AO2 T01220104
KRQB 191115Z AUTO 00000KT 10SM CLR 12/10 A3008 RMK AO2 T01150099
KRQB 191055Z AUTO 27003KT 10SM CLR 11/09 A3008 RMK AO2 T01060091
KRQB 191035Z AUTO 00000KT 10SM CLR 10/09 A3008 RMK AO2 T01010087
KRQB 191015Z AUTO 00000KT 10SM CLR 10/08 A3007 RMK AO2 T00970083
KRQB 190955Z AUTO 28004KT 10SM CLR 10/09 A3007 RMK AO2 T01010088
KRQB 190935Z AUTO 00000KT 10SM CLR 10/09 A3007 RMK AO2 T01010089
KRQB 190915Z AUTO 00000KT 10SM CLR 10/09 A3006 RMK AO2 T01010091
KRQB 190855Z AUTO 00000KT 10SM CLR 11/09 A3006 RMK AO2 T01050091
KRQB 190835Z AUTO 00000KT 10SM CLR 11/09 A3006 RMK AO2 T01050090
KRQB 190815Z AUTO 00000KT 10SM CLR 11/10 A3006 RMK AO2 T01110097
KRQB 190755Z AUTO 00000KT 10SM CLR 11/10 A3006 RMK AO2 T01140100
KRQB 190735Z AUTO 00000KT 10SM CLR 11/10 A3007 RMK AO2 T01130098
KRQB 190715Z AUTO 00000KT 10SM CLR 12/11 A3006 RMK AO2 T01200105
KRQB 190655Z AUTO 00000KT 10SM CLR 12/10 A3007 RMK AO2 T01150099
KRQB 190635Z AUTO 00000KT 10SM CLR 12/10 A3007 RMK AO2 T01200103
KRQB 190615Z AUTO 26003KT 10SM CLR 13/11 A3007 RMK AO2 T01260110
KRQB 190555Z AUTO 26003KT 10SM CLR 13/11 A3006 RMK AO2 T01270110 10236 20126 402690086
KRQB 190535Z AUTO 00000KT 10SM CLR 13/11 A3006 RMK AO2 T01260106
KRQB 190515Z AUTO 00000KT 10SM CLR 13/11 A3006 RMK AO2 T01310107
KRQB 190455Z AUTO 00000KT 10SM CLR 14/11 A3007 RMK AO2 T01360111
KRQB 190435Z AUTO 00000KT 10SM CLR 14/11 A3007 RMK AO2 T01410110
KRQB 190415Z AUTO 00000KT 10SM CLR 15/11 A3007 RMK AO2 T01450114
KRQB 190355Z AUTO 00000KT 10SM CLR 15/11 A3007 RMK AO2 T01480110
KRQB 190335Z AUTO 00000KT 10SM CLR 16/12 A3007 RMK AO2 T01600117
KRQB 190315Z AUTO 00000KT 10SM CLR 16/12 A3007 RMK AO2 T01570117
KRQB 190255Z AUTO 00000KT 10SM CLR 17/12 A3007 RMK AO2 T01650118
KRQB 190235Z AUTO 00000KT 10SM CLR 18/12 A3007 RMK AO2 T01800117
KRQB 190215Z AUTO 27003KT 10SM CLR 18/12 A3007 RMK AO2 T01830120
KRQB 190155Z AUTO 29009KT 10SM CLR 20/12 A3006 RMK AO2 T01960116
KRQB 190135Z AUTO 30008KT 10SM CLR 20/12 A3006 RMK AO2 T02020117
KRQB 190115Z AUTO 30006KT 10SM CLR 21/12 A3006 RMK AO2 T02100117
KRQB 190055Z AUTO 31007KT 10SM CLR 22/12 A3006 RMK AO2 T02170116
KRQB 190035Z AUTO 32009KT 10SM CLR 23/12 A3006 RMK AO2 T02250115
KRQB 190015Z AUTO 32009KT 290V350 10SM CLR 23/12 A3006 RMK AO2 T02320116
KRQB 182355Z AUTO 31010G17KT 10SM CLR 24/11 A3005 RMK AO2 T02380112 10269 20237
KRQB 182335Z AUTO 30013KT 10SM CLR 25/10 A3005 RMK AO2 T02530095
KRQB 182315Z AUTO 29008KT 10SM SCT065 26/08 A3005 RMK AO2 T02550084
KRQB 182255Z AUTO 29004KT 10SM BKN065 26/07 A3005 RMK AO2 T02590074
KRQB 182235Z AUTO 22005KT 10SM BKN065 26/07 A3005 RMK AO2 T02560073
KRQB 182215Z AUTO 22003KT 10SM CLR 26/06 A3006 RMK AO2 T02550062
KRQB 182155Z AUTO 28006KT 10SM CLR 27/06 A3006 RMK AO2 T02650056
KRQB 182135Z AUTO 29006KT 10SM CLR 27/05 A3006 RMK AO2 T02650051
KRQB 182115Z AUTO 20006KT 10SM CLR 27/05 A3006 RMK AO2 T02650052
KRQB 182055Z AUTO 28008KT 10SM CLR 26/05 A3007 RMK AO2 T02640049
KRQB 182035Z AUTO 28004KT 10SM CLR 26/05 A3007 RMK AO2 T02590048
KRQB 182015Z AUTO 01007KT 10SM CLR 26/05 A3008 RMK AO2 T02570049
KRQB 181955Z AUTO 35003KT 10SM CLR 26/05 A3009 RMK AO2 T02570054
KRQB 181935Z AUTO 00000KT 10SM CLR 25/05 A3009 RMK AO2 T02500051
KRQB 181915Z AUTO 36003KT 10SM CLR 25/05 A3010 RMK AO2 T02490052
KRQB 181855Z AUTO 01007KT 300V020 10SM CLR 25/05 A3010 RMK AO2 T02450052
KRQB 181835Z AUTO 01005KT 10SM CLR 25/06 A3011 RMK AO2 T02470056
KRQB 181815Z AUTO 06003KT 10SM CLR 24/06 A3011 RMK AO2 T02410055
KRQB 181755Z AUTO 00000KT 10SM CLR 24/06 A3012 RMK AO2 T02380055 10238 20129
KRQB 181735Z AUTO 05006KT 10SM CLR 24/05 A3012 RMK AO2 T02360051
KRQB 181715Z AUTO 04005KT 10SM CLR 23/05 A3012 RMK AO2 T02330047
KRQB 181655Z AUTO 36007KT 10SM CLR 23/05 A3013 RMK AO2 T02280049
KRQB 181635Z AUTO 09005KT 10SM CLR 22/06 A3014 RMK AO2 T02230057
KRQB 181615Z AUTO 36006KT 10SM CLR 22/06 A3014 RMK AO2 T02200060
KRQB 181555Z AUTO 02004KT 10SM CLR 22/06 A3014 RMK AO2 T02190058
KRQB 181535Z AUTO 01006KT 10SM CLR 22/05 A3015 RMK AO2 T02150049
KRQB 181515Z AUTO 01005KT 10SM CLR 21/05 A3015 RMK AO2 T02070046
KRQB 181455Z AUTO 03006KT 10SM CLR 20/06 A3015 RMK AO2 T02040058
KRQB 181435Z AUTO 02005KT 10SM CLR 20/09 A3015 RMK AO2 T01950093
KRQB 181415Z AUTO 34004KT 10SM CLR 19/11 A3016 RMK AO2 T01880111
KRQB 181355Z AUTO 35003KT 10SM CLR 18/11 A3016 RMK AO2 T01790113
KRQB 181335Z AUTO 00000KT 10SM CLR 17/12 A3016 RMK AO2 T01710117
KRQB 181315Z AUTO 00000KT 10SM CLR 17/12 A3016 RMK AO2 T01650119
KRQB 181255Z AUTO 00000KT 10SM CLR 16/12 A3017 RMK AO2 T01600121
KRQB 181235Z AUTO 00000KT 10SM CLR 15/12 A3017 RMK AO2 T01470116
KRQB 181215Z AUTO 00000KT 10SM CLR 14/11 A3016 RMK AO2 T01360113
KRQB 181155Z AUTO 00000KT 10SM CLR 13/11 A3016 RMK AO2 T01260108 10132 20086
KRQB 181135Z AUTO 00000KT 10SM CLR 11/10 A3016 RMK AO2 T01070095
KRQB 181115Z AUTO 00000KT 10SM CLR 10/09 A3016 RMK AO2 T00970085
KRQB 181055Z AUTO 00000KT 10SM CLR 09/08 A3015 RMK AO2 T00880076
KRQB 181035Z AUTO 29004KT 10SM CLR 09/08 A3015 RMK AO2 T00900080
KRQB 181015Z AUTO 31003KT 10SM CLR 09/08 A3014 RMK AO2 T00880077
KRQB 180955Z AUTO 00000KT 10SM CLR 09/08 A3014 RMK AO2 T00920081
KRQB 180935Z AUTO 28005KT 10SM CLR 10/09 A3014 RMK AO2 T00950085
KRQB 180915Z AUTO 00000KT 10SM CLR 10/09 A3013 RMK AO2 T00990090
KRQB 180855Z AUTO 00000KT 10SM CLR 10/09 A3013 RMK AO2 T00980085
KRQB 180835Z AUTO 00000KT 10SM CLR 11/09 A3013 RMK AO2 T01050091
KRQB 180815Z AUTO 28006KT 10SM CLR 11/10 A3013 RMK AO2 T01080095
KRQB 180755Z AUTO 00000KT 10SM CLR 11/10 A3013 RMK AO2 T01100096
KRQB 180735Z AUTO 26003KT 10SM CLR 11/09 A3014 RMK AO2 T01090094
KRQB 180715Z AUTO 00000KT 10SM CLR 11/09 A3013 RMK AO2 T01080091
KRQB 180655Z AUTO 00000KT 10SM CLR 12/10 A3013 RMK AO2 T01220103
KRQB 180635Z AUTO 00000KT 10SM CLR 12/10 A3012 RMK AO2 T01200095
KRQB 180615Z AUTO 00000KT 10SM CLR 13/11 A3012 RMK AO2 T01320105
KRQB 180555Z AUTO 00000KT 10SM CLR 13/11 A3012 RMK AO2 T01300105 10213 20130 402500130
KRQB 180535Z AUTO 00000KT 10SM CLR 13/11 A3012 RMK AO2 T01330105
KRQB 180515Z AUTO 00000KT 10SM CLR 14/11 A3012 RMK AO2 T01350106
KRQB 180455Z AUTO 34003KT 10SM CLR 14/11 A3012 RMK AO2 T01400106
KRQB 180435Z AUTO 00000KT 10SM CLR 14/11 A3012 RMK AO2 T01400105
KRQB 180415Z AUTO 00000KT 10SM CLR 14/11 A3012 RMK AO2 T01430106
KRQB 180355Z AUTO 00000KT 10SM CLR 15/11 A3012 RMK AO2 T01470106
KRQB 180335Z AUTO 00000KT 10SM CLR 15/11 A3011 RMK AO2 T01540107
KRQB 180315Z AUTO 34004KT 10SM CLR 16/11 A3011 RMK AO2 T01570107
KRQB 180255Z AUTO 34004KT 10SM CLR 16/11 A3011 RMK AO2 T01620108
KRQB 180235Z AUTO 34003KT 10SM CLR 17/11 A3011 RMK AO2 T01660109
KRQB 180215Z AUTO 32003KT 10SM CLR 17/11 A3010 RMK AO2 T01720109
KRQB 180155Z AUTO 34004KT 10SM CLR 18/11 A3009 RMK AO2 T01780109
KRQB 180135Z AUTO 31005KT 10SM CLR 18/11 A3009 RMK AO2 T01840108
KRQB 180115Z AUTO 34004KT 10SM CLR 19/11 A3008 RMK AO2 T01900105